Time;durP1;ratioP1;P1;durP2;ratioP2;P2;SDS_P1;SDS_P2;PMS_P1;PMS_P2;Temp;Humidity;BMP_temperature;BMP_pressure;BME280_temperature;BME280_humidity;BME280_pressure;Samples;Min_cycle;Max_cycle;Signal;HPM_P1;HPM_P2
2022/01/26 00:07:03;;;;;;;17.97;11.30;;;;;;;;;;4933634;29;20500;-67
2022/01/26 00:09:28;;;;;;;20.40;11.70;;;;;;;;;;4932492;28;20031;-67
2022/01/26 00:11:53;;;;;;;17.90;11.97;;;;;;;;;;4914244;29;20048;-68
2022/01/26 00:14:18;;;;;;;18.10;11.30;;;;;;;;;;4928026;29;20476;-67
2022/01/26 00:16:44;;;;;;;19.33;11.83;;;;;;;;;;4917291;29;20047;-67
2022/01/26 00:19:13;;;;;;;16.40;8.97;;;;;;;;;;4932665;29;20110;-66
2022/01/26 00:21:46;;;;;;;18.23;11.37;;;;;;;;;;4929860;29;20050;-67
2022/01/26 00:29:24;;;;;;;16.70;10.75;;;;;;;;;;4934983;29;20118;-68
2022/01/26 00:40:04;;;;;;;16.43;9.30;;;;;;;;;;4953428;29;20042;-67
2022/01/26 00:42:35;;;;;;;15.03;8.97;;;;;;;;;;4954008;28;20035;-67
2022/01/26 00:45:00;;;;;;;16.27;10.00;;;;;;;;;;4954896;28;20027;-67
2022/01/26 00:47:25;;;;;;;17.00;9.87;;;;;;;;;;4953891;28;20019;-67
2022/01/26 00:49:55;;;;;;;18.47;10.60;;;;;;;;;;4951931;28;20055;-67
2022/01/26 00:52:28;;;;;;;19.23;11.93;;;;;;;;;;4951376;29;20035;-66
2022/01/26 00:54:54;;;;;;;20.53;11.43;;;;;;;;;;4953307;28;20031;-67
2022/01/26 00:57:20;;;;;;;19.60;10.87;;;;;;;;;;4955294;28;20031;-67
2022/01/26 00:59:45;;;;;;;20.13;11.07;;;;;;;;;;4953442;28;20492;-67
2022/01/26 01:02:10;;;;;;;22.37;12.77;;;;;;;;;;4953892;29;20025;-68
2022/01/26 01:04:36;;;;;;;21.77;11.40;;;;;;;;;;4953925;28;20392;-68
2022/01/26 01:07:03;;;;;;;22.70;13.53;;;;;;;;;;4953291;28;20523;-70
2022/01/26 01:09:33;;;;;;;25.75;13.40;;;;;;;;;;4953122;28;20102;-67
2022/01/26 01:11:58;;;;;;;25.98;13.65;;;;;;;;;;4953175;28;20078;-67
2022/01/26 01:14:23;;;;;;;27.60;15.30;;;;;;;;;;4953866;28;20027;-68
2022/01/26 01:16:49;;;;;;;29.63;16.50;;;;;;;;;;4958722;28;20031;-67
2022/01/26 01:19:32;;;;;;;26.93;14.63;;;;;;;;;;4959530;28;20024;-67
2022/01/26 01:27:25;;;;;;;27.53;14.50;;;;;;;;;;4965746;28;20058;-68
2022/01/26 01:30:08;;;;;;;27.97;15.87;;;;;;;;;;4966627;28;20126;-67
2022/01/26 01:32:49;;;;;;;25.90;14.00;;;;;;;;;;4961213;28;20050;-68
2022/01/26 01:35:14;;;;;;;26.00;13.73;;;;;;;;;;4960333;28;20024;-67
2022/01/26 01:37:39;;;;;;;26.83;14.63;;;;;;;;;;4965502;28;20042;-67
2022/01/26 01:40:05;;;;;;;26.67;14.20;;;;;;;;;;4975827;28;20086;-68
2022/01/26 01:42:30;;;;;;;28.83;14.77;;;;;;;;;;4959482;29;20027;-67
2022/01/26 01:44:56;;;;;;;25.13;13.37;;;;;;;;;;4959616;28;20054;-67
2022/01/26 01:47:21;;;;;;;24.60;13.77;;;;;;;;;;4959552;28;20062;-68
2022/01/26 01:49:46;;;;;;;25.80;14.50;;;;;;;;;;4974024;28;20039;-68
2022/01/26 01:52:14;;;;;;;23.63;13.27;;;;;;;;;;4955563;28;20058;-67
2022/01/26 01:54:43;;;;;;;23.87;13.03;;;;;;;;;;4957989;28;20110;-68
2022/01/26 01:57:09;;;;;;;28.10;14.87;;;;;;;;;;4957840;28;20038;-67
2022/01/26 01:59:34;;;;;;;27.40;14.93;;;;;;;;;;4962013;28;20027;-65
2022/01/26 02:02:01;;;;;;;27.27;14.53;;;;;;;;;;4959166;29;20560;-67
2022/01/26 02:04:26;;;;;;;29.13;15.33;;;;;;;;;;4959779;28;20107;-67
2022/01/26 02:06:51;;;;;;;27.63;14.97;;;;;;;;;;4958356;29;20527;-67
2022/01/26 02:09:16;;;;;;;29.50;16.13;;;;;;;;;;4959024;28;20096;-68
2022/01/26 02:11:46;;;;;;;26.13;14.57;;;;;;;;;;4959280;28;20114;-68
2022/01/26 02:14:18;;;;;;;24.33;13.37;;;;;;;;;;4959809;29;20050;-67
2022/01/26 02:16:54;;;;;;;21.07;12.50;;;;;;;;;;4958042;28;20031;-67
2022/01/26 02:49:49;;;;;;;12.50;7.77;;;;;;;;;;4955895;28;20054;-67
2022/01/26 02:54:49;;;;;;;12.83;7.20;;;;;;;;;;4955097;28;20020;-67
2022/01/26 02:57:34;;;;;;;13.90;7.83;;;;;;;;;;4955950;28;20396;-68
2022/01/26 03:03:31;;;;;;;13.73;8.00;;;;;;;;;;4955922;29;20043;-68
2022/01/26 03:05:24;;;;;;;16.90;10.17;;;;;;;;;;4951314;28;20122;-67
2022/01/26 03:07:55;;;;;;;19.23;11.93;;;;;;;;;;4955184;28;20027;-67
2022/01/26 03:10:33;;;;;;;20.27;11.77;;;;;;;;;;4955528;28;20032;-67
2022/01/26 03:13:14;;;;;;;20.57;12.40;;;;;;;;;;4954950;28;20109;-67
2022/01/26 03:15:44;;;;;;;21.17;12.00;;;;;;;;;;4955565;28;20034;-68
2022/01/26 03:20:43;;;;;;;17.30;10.00;;;;;;;;;;4953086;28;20458;-67
2022/01/26 03:32:20;;;;;;;21.27;12.50;;;;;;;;;;4956227;28;20058;-67
2022/01/26 03:34:11;;;;;;;19.53;11.43;;;;;;;;;;4950191;29;20046;-67
2022/01/26 03:39:13;;;;;;;18.37;11.27;;;;;;;;;;4954256;28;20476;-67
2022/01/26 03:44:04;;;;;;;20.90;11.17;;;;;;;;;;4954855;28;20066;-67
2022/01/26 03:46:30;;;;;;;15.80;9.30;;;;;;;;;;4955249;28;20023;-67
2022/01/26 03:48:55;;;;;;;17.90;10.50;;;;;;;;;;4954542;28;20090;-67
2022/01/26 03:51:20;;;;;;;15.40;9.67;;;;;;;;;;4953389;28;22121;-67
2022/01/26 03:53:45;;;;;;;14.53;9.07;;;;;;;;;;4953477;28;20460;-67
2022/01/26 03:56:10;;;;;;;13.33;7.40;;;;;;;;;;4954284;29;20039;-67
2022/01/26 03:58:36;;;;;;;13.93;8.60;;;;;;;;;;4954248;29;20081;-67
2022/01/26 04:01:01;;;;;;;13.97;9.13;;;;;;;;;;4957753;28;20046;-67
2022/01/26 04:03:26;;;;;;;11.83;8.20;;;;;;;;;;4969414;28;20098;-66
2022/01/26 04:05:51;;;;;;;12.83;8.07;;;;;;;;;;4955346;28;20106;-67
2022/01/26 04:08:28;;;;;;;13.70;8.47;;;;;;;;;;4953604;28;20535;-67
2022/01/26 04:13:31;;;;;;;17.17;10.53;;;;;;;;;;4955632;28;20035;-67
2022/01/26 04:15:56;;;;;;;15.20;9.17;;;;;;;;;;4954487;28;20031;-68
2022/01/26 04:18:28;;;;;;;16.63;9.27;;;;;;;;;;4953918;28;20035;-67
2022/01/26 04:20:57;;;;;;;15.90;8.23;;;;;;;;;;4951903;28;20501;-68
2022/01/26 04:23:38;;;;;;;15.60;8.87;;;;;;;;;;4980424;28;20126;-68
2022/01/26 04:26:03;;;;;;;12.37;7.80;;;;;;;;;;4954045;28;20508;-67
2022/01/26 04:28:38;;;;;;;16.10;9.13;;;;;;;;;;4953726;28;20090;-67
2022/01/26 04:31:03;;;;;;;16.67;10.43;;;;;;;;;;4954661;28;20042;-67
2022/01/26 04:33:32;;;;;;;18.03;10.37;;;;;;;;;;4954639;28;20031;-66
2022/01/26 04:35:57;;;;;;;18.33;10.87;;;;;;;;;;4954443;28;20031;-67
2022/01/26 04:38:30;;;;;;;17.23;11.13;;;;;;;;;;4953185;28;20031;-67
2022/01/26 04:43:41;;;;;;;17.80;10.93;;;;;;;;;;4945233;28;20086;-67
2022/01/26 04:46:08;;;;;;;17.03;9.80;;;;;;;;;;4953486;28;20396;-67
2022/01/26 04:48:33;;;;;;;18.53;10.90;;;;;;;;;;4953409;29;20035;-67
2022/01/26 04:50:58;;;;;;;18.17;10.47;;;;;;;;;;4950777;28;20035;-67
2022/01/26 04:53:23;;;;;;;17.13;9.93;;;;;;;;;;4953667;28;20042;-67
2022/01/26 04:55:49;;;;;;;16.00;9.83;;;;;;;;;;4953602;28;20131;-67
2022/01/26 04:58:14;;;;;;;16.97;10.37;;;;;;;;;;4952609;28;20027;-67
2022/01/26 05:00:39;;;;;;;16.67;10.37;;;;;;;;;;4935052;29;20070;-67
2022/01/26 05:03:04;;;;;;;16.83;9.90;;;;;;;;;;4952546;29;20051;-67
2022/01/26 05:05:29;;;;;;;16.13;9.57;;;;;;;;;;4954673;28;20027;-68
2022/01/26 05:07:55;;;;;;;12.03;7.13;;;;;;;;;;4953184;28;20039;-67
2022/01/26 05:10:20;;;;;;;14.23;7.97;;;;;;;;;;4952877;28;20043;-67
2022/01/26 05:12:45;;;;;;;10.07;6.07;;;;;;;;;;4953845;29;20050;-67
2022/01/26 05:15:11;;;;;;;9.53;5.73;;;;;;;;;;4954686;28;20082;-66
2022/01/26 05:17:37;;;;;;;7.97;4.60;;;;;;;;;;4953174;28;20023;-66
2022/01/26 05:20:04;;;;;;;8.03;5.27;;;;;;;;;;4951916;28;20125;-67
2022/01/26 05:22:31;;;;;;;9.33;5.50;;;;;;;;;;4952131;28;20023;-67
2022/01/26 05:24:56;;;;;;;7.73;5.07;;;;;;;;;;4953145;28;20459;-67
2022/01/26 05:27:21;;;;;;;9.03;5.50;;;;;;;;;;4951765;28;20023;-67
2022/01/26 05:29:47;;;;;;;7.77;5.30;;;;;;;;;;4948407;28;20038;-67
2022/01/26 05:32:12;;;;;;;7.73;4.70;;;;;;;;;;4953403;28;20019;-68
2022/01/26 05:34:37;;;;;;;7.40;5.47;;;;;;;;;;4953124;28;20054;-67
2022/01/26 05:37:03;;;;;;;7.37;4.20;;;;;;;;;;4933986;29;20354;-68
2022/01/26 05:39:28;;;;;;;7.23;4.67;;;;;;;;;;4952331;29;20086;-68
2022/01/26 05:41:53;;;;;;;8.77;5.33;;;;;;;;;;4953039;28;20502;-69
2022/01/26 05:44:18;;;;;;;7.43;5.20;;;;;;;;;;4948320;28;20043;-68
2022/01/26 05:46:47;;;;;;;8.77;5.90;;;;;;;;;;4954400;28;20035;-67
2022/01/26 05:49:13;;;;;;;8.23;4.90;;;;;;;;;;4952722;28;20015;-66
2022/01/26 05:51:39;;;;;;;9.03;4.93;;;;;;;;;;4950942;29;20027;-67
2022/01/26 05:54:05;;;;;;;7.23;4.73;;;;;;;;;;4952542;28;20054;-67
2022/01/26 05:56:30;;;;;;;8.53;4.77;;;;;;;;;;4953024;28;20489;-67
2022/01/26 05:58:56;;;;;;;7.33;4.80;;;;;;;;;;4964924;28;20027;-67
2022/01/26 06:01:21;;;;;;;7.47;4.40;;;;;;;;;;4950167;28;20086;-67
2022/01/26 06:03:47;;;;;;;8.37;5.13;;;;;;;;;;4956190;29;20070;-66
2022/01/26 06:06:12;;;;;;;6.70;4.27;;;;;;;;;;4956726;28;20020;-67
2022/01/26 06:08:37;;;;;;;6.70;4.63;;;;;;;;;;4954762;28;20012;-67
2022/01/26 06:11:04;;;;;;;7.20;4.67;;;;;;;;;;4956074;28;20027;-68
2022/01/26 06:13:29;;;;;;;10.03;6.47;;;;;;;;;;4956369;29;20023;-67
2022/01/26 06:15:54;;;;;;;9.47;6.10;;;;;;;;;;4956431;29;20369;-67
2022/01/26 06:18:20;;;;;;;7.33;4.63;;;;;;;;;;4949142;28;20028;-67
2022/01/26 06:20:45;;;;;;;7.47;4.80;;;;;;;;;;4953559;28;20837;-67
2022/01/26 06:23:10;;;;;;;9.20;5.33;;;;;;;;;;4955098;29;20023;-67
2022/01/26 06:25:36;;;;;;;11.70;5.40;;;;;;;;;;4955673;28;20054;-65
2022/01/26 06:28:06;;;;;;;10.47;6.37;;;;;;;;;;4955950;28;20055;-66
2022/01/26 06:30:31;;;;;;;9.30;5.87;;;;;;;;;;4954921;28;20042;-68
2022/01/26 06:32:56;;;;;;;9.83;6.60;;;;;;;;;;4955457;28;20039;-66
2022/01/26 06:35:22;;;;;;;9.27;6.20;;;;;;;;;;4956446;29;20019;-67
2022/01/26 06:37:47;;;;;;;12.40;7.30;;;;;;;;;;4955661;28;20440;-67
2022/01/26 06:40:13;;;;;;;10.40;6.60;;;;;;;;;;4953742;28;20027;-68
2022/01/26 06:42:51;;;;;;;10.83;6.47;;;;;;;;;;4953808;28;20019;-67
2022/01/26 06:45:19;;;;;;;12.00;7.47;;;;;;;;;;4955714;29;20098;-66
2022/01/26 06:50:24;;;;;;;8.93;6.10;;;;;;;;;;4952508;28;20031;-68
2022/01/26 06:52:50;;;;;;;11.43;7.20;;;;;;;;;;4954967;29;20079;-67
2022/01/26 06:55:16;;;;;;;12.00;7.03;;;;;;;;;;4952862;29;20035;-68
2022/01/26 06:57:41;;;;;;;10.03;6.30;;;;;;;;;;4955942;29;20481;-67
2022/01/26 07:00:07;;;;;;;9.33;6.00;;;;;;;;;;4955331;28;20027;-67
2022/01/26 07:02:32;;;;;;;9.97;5.80;;;;;;;;;;4952261;28;20019;-67
2022/01/26 07:04:57;;;;;;;9.03;5.40;;;;;;;;;;4954408;29;20027;-67
2022/01/26 07:07:23;;;;;;;10.73;4.83;;;;;;;;;;4955283;28;20447;-68
2022/01/26 07:09:48;;;;;;;10.20;5.30;;;;;;;;;;4945533;29;20102;-67
2022/01/26 07:12:13;;;;;;;9.00;5.10;;;;;;;;;;4954993;28;20015;-67
2022/01/26 07:22:51;;;;;;;9.83;5.00;;;;;;;;;;4951693;28;20412;-66
2022/01/26 07:25:16;;;;;;;10.53;5.20;;;;;;;;;;4953309;28;20043;-64
2022/01/26 07:27:42;;;;;;;9.23;5.20;;;;;;;;;;4955066;28;20484;-67
2022/01/26 07:30:08;;;;;;;9.47;5.67;;;;;;;;;;4950656;29;20031;-68
2022/01/26 07:32:35;;;;;;;9.10;5.17;;;;;;;;;;4954179;28;20050;-68
2022/01/26 07:35:00;;;;;;;9.53;3.93;;;;;;;;;;4949309;29;20559;-68
2022/01/26 07:37:25;;;;;;;7.73;4.37;;;;;;;;;;4952344;29;20031;-68
2022/01/26 07:40:03;;;;;;;7.83;4.13;;;;;;;;;;4954387;29;20042;-69
2022/01/26 07:42:29;;;;;;;10.40;4.27;;;;;;;;;;4945178;29;20043;-68
2022/01/26 07:44:54;;;;;;;5.60;3.27;;;;;;;;;;4954607;28;20015;-68
2022/01/26 07:47:19;;;;;;;4.57;2.80;;;;;;;;;;4954806;28;20460;-68
2022/01/26 07:49:44;;;;;;;5.10;3.17;;;;;;;;;;4950891;28;20471;-67
2022/01/26 07:52:10;;;;;;;3.67;2.10;;;;;;;;;;4952886;28;20082;-67
2022/01/26 07:54:35;;;;;;;4.07;2.30;;;;;;;;;;4944263;28;20527;-67
2022/01/26 07:57:01;;;;;;;4.47;2.70;;;;;;;;;;4954650;28;20492;-67
2022/01/26 07:59:27;;;;;;;3.87;1.70;;;;;;;;;;4954362;29;20108;-66
2022/01/26 08:01:52;;;;;;;4.73;1.87;;;;;;;;;;4936917;29;20043;-67
2022/01/26 08:04:17;;;;;;;4.43;2.50;;;;;;;;;;4953778;28;20020;-66
2022/01/26 08:06:44;;;;;;;4.23;2.50;;;;;;;;;;4954519;28;20031;-67
2022/01/26 08:09:09;;;;;;;5.17;3.03;;;;;;;;;;4953994;29;20026;-66
2022/01/26 08:11:35;;;;;;;5.13;2.60;;;;;;;;;;4954030;29;20031;-67
2022/01/26 08:14:00;;;;;;;6.60;3.73;;;;;;;;;;4953391;29;20038;-68
2022/01/26 08:16:25;;;;;;;6.73;3.83;;;;;;;;;;4954218;28;20471;-67
2022/01/26 08:18:50;;;;;;;5.80;3.20;;;;;;;;;;4953635;29;20062;-67
2022/01/26 08:21:16;;;;;;;5.77;3.70;;;;;;;;;;4950504;28;20031;-67
2022/01/26 08:23:43;;;;;;;4.47;2.27;;;;;;;;;;4953128;29;20050;-67
2022/01/26 08:26:09;;;;;;;5.83;3.13;;;;;;;;;;4952138;28;20043;-68
2022/01/26 08:28:38;;;;;;;7.73;3.97;;;;;;;;;;4954040;28;20031;-66
2022/01/26 08:31:03;;;;;;;6.47;3.70;;;;;;;;;;4953039;28;20499;-67
2022/01/26 08:33:29;;;;;;;8.40;4.47;;;;;;;;;;4953584;29;20023;-67
2022/01/26 08:35:54;;;;;;;7.10;3.67;;;;;;;;;;4953565;28;20533;-66
2022/01/26 08:38:19;;;;;;;6.83;4.37;;;;;;;;;;4953473;28;20070;-64
2022/01/26 08:40:46;;;;;;;12.07;5.50;;;;;;;;;;4953669;28;20031;-66
2022/01/26 08:43:12;;;;;;;7.50;3.87;;;;;;;;;;4948872;28;20036;-67
2022/01/26 08:45:37;;;;;;;6.73;4.27;;;;;;;;;;4961524;28;20023;-67
2022/01/26 08:48:02;;;;;;;8.80;3.97;;;;;;;;;;4952970;28;20023;-68
2022/01/26 08:50:28;;;;;;;7.03;3.93;;;;;;;;;;4949754;28;20034;-68
2022/01/26 08:52:53;;;;;;;6.30;3.20;;;;;;;;;;4952760;28;20031;-67
2022/01/26 08:55:18;;;;;;;9.17;4.23;;;;;;;;;;4951894;28;20028;-67
2022/01/26 08:57:44;;;;;;;7.83;3.37;;;;;;;;;;4951977;28;20035;-69
2022/01/26 09:00:09;;;;;;;9.53;5.30;;;;;;;;;;4953138;28;20027;-68
2022/01/26 09:02:35;;;;;;;5.30;3.17;;;;;;;;;;4953435;28;20035;-67
2022/01/26 09:05:00;;;;;;;6.73;3.77;;;;;;;;;;4953635;28;20019;-67
2022/01/26 09:07:26;;;;;;;7.23;4.63;;;;;;;;;;4952855;28;20507;-66
2022/01/26 09:09:51;;;;;;;8.27;4.60;;;;;;;;;;4948297;28;20028;-67
2022/01/26 09:12:18;;;;;;;4.60;2.70;;;;;;;;;;4952010;29;20015;-67
2022/01/26 09:14:44;;;;;;;6.60;3.03;;;;;;;;;;4953354;29;20110;-68
2022/01/26 09:17:11;;;;;;;7.87;3.77;;;;;;;;;;4952660;29;20026;-67
2022/01/26 09:19:38;;;;;;;8.07;4.00;;;;;;;;;;4952052;28;20050;-67
2022/01/26 09:22:07;;;;;;;6.23;3.87;;;;;;;;;;4964040;28;20078;-68
2022/01/26 09:24:33;;;;;;;6.57;3.90;;;;;;;;;;4957466;28;20125;-68
2022/01/26 09:26:59;;;;;;;7.27;4.10;;;;;;;;;;4958621;28;20026;-68
2022/01/26 09:29:24;;;;;;;7.23;4.27;;;;;;;;;;4968009;28;20031;-68
2022/01/26 09:31:50;;;;;;;6.90;4.33;;;;;;;;;;4953121;28;20074;-67
2022/01/26 09:34:16;;;;;;;9.27;4.70;;;;;;;;;;4948583;28;20039;-68
2022/01/26 09:36:41;;;;;;;10.40;4.60;;;;;;;;;;4944616;28;20499;-68
2022/01/26 09:39:07;;;;;;;9.47;5.60;;;;;;;;;;4956168;28;20023;-68
2022/01/26 09:41:32;;;;;;;8.63;4.53;;;;;;;;;;4956346;28;20027;-68
2022/01/26 09:43:59;;;;;;;9.87;5.20;;;;;;;;;;4956989;29;20054;-67
2022/01/26 09:46:24;;;;;;;9.10;5.07;;;;;;;;;;4957183;29;20035;-68
2022/01/26 09:48:49;;;;;;;9.13;4.93;;;;;;;;;;4956111;29;20031;-67
2022/01/26 09:51:16;;;;;;;9.60;5.77;;;;;;;;;;4959604;28;20102;-68
2022/01/26 09:53:42;;;;;;;10.40;5.70;;;;;;;;;;4969273;28;20059;-69
2022/01/26 09:56:07;;;;;;;10.57;5.47;;;;;;;;;;4972483;28;20056;-67
2022/01/26 09:58:32;;;;;;;10.30;5.60;;;;;;;;;;4957814;28;20488;-67
2022/01/26 10:01:02;;;;;;;13.17;6.07;;;;;;;;;;4956956;28;20126;-69
2022/01/26 10:03:31;;;;;;;8.37;5.07;;;;;;;;;;4955639;28;20038;-68
2022/01/26 10:05:56;;;;;;;7.93;5.20;;;;;;;;;;4965872;28;20080;-68
2022/01/26 10:18:55;;;;;;;11.57;7.83;;;;;;;;;;4954606;29;20106;-66
2022/01/26 10:21:20;;;;;;;11.93;7.63;;;;;;;;;;4949181;28;20058;-67
2022/01/26 10:23:45;;;;;;;11.43;7.00;;;;;;;;;;4955957;28;20123;-68
2022/01/26 10:26:12;;;;;;;8.53;5.30;;;;;;;;;;4955453;29;20472;-66
2022/01/26 10:28:44;;;;;;;10.50;6.87;;;;;;;;;;4955669;28;20007;-67
2022/01/26 10:31:19;;;;;;;7.60;5.23;;;;;;;;;;4955978;28;20078;-67
2022/01/26 10:33:58;;;;;;;7.40;4.77;;;;;;;;;;4954951;28;20027;-67
2022/01/26 10:36:44;;;;;;;4.97;3.40;;;;;;;;;;4955801;29;20078;-68
2022/01/26 10:39:11;;;;;;;5.95;3.17;;;;;;;;;;4958152;28;20035;-67
2022/01/26 10:41:38;;;;;;;6.33;3.40;;;;;;;;;;4954883;28;20108;-67
2022/01/26 10:44:04;;;;;;;4.87;3.33;;;;;;;;;;4952118;28;20027;-67
2022/01/26 10:46:30;;;;;;;5.17;3.13;;;;;;;;;;4955777;28;20031;-67
2022/01/26 10:49:09;;;;;;;5.27;3.37;;;;;;;;;;4954062;28;20027;-67
2022/01/26 10:52:01;;;;;;;5.37;3.13;;;;;;;;;;4955131;28;20024;-67
2022/01/26 10:54:43;;;;;;;5.07;3.17;;;;;;;;;;4955265;29;20047;-67
2022/01/26 10:57:09;;;;;;;5.77;4.00;;;;;;;;;;4955584;28;20045;-68
2022/01/26 10:59:38;;;;;;;6.23;4.13;;;;;;;;;;4959234;28;20439;-67
2022/01/26 11:02:05;;;;;;;5.50;3.50;;;;;;;;;;4955458;28;20031;-67
2022/01/26 11:04:31;;;;;;;4.60;2.97;;;;;;;;;;4955078;28;20023;-67
2022/01/26 11:06:57;;;;;;;4.73;3.27;;;;;;;;;;4954134;29;20027;-67
2022/01/26 11:09:24;;;;;;;5.03;3.07;;;;;;;;;;4955700;29;20034;-67
2022/01/26 11:11:59;;;;;;;5.60;2.97;;;;;;;;;;4955101;28;20039;-65
2022/01/26 11:14:25;;;;;;;5.17;3.80;;;;;;;;;;4955092;29;20027;-67
2022/01/26 11:16:59;;;;;;;6.97;4.33;;;;;;;;;;4954648;28;20507;-67
2022/01/26 11:19:25;;;;;;;5.40;3.78;;;;;;;;;;4954775;29;20027;-67
2022/01/26 11:21:50;;;;;;;6.13;4.10;;;;;;;;;;4951829;28;20127;-68
2022/01/26 11:24:15;;;;;;;6.63;4.50;;;;;;;;;;4954308;28;20444;-67
2022/01/26 11:26:42;;;;;;;6.00;3.73;;;;;;;;;;4954954;28;20023;-68
2022/01/26 11:29:14;;;;;;;6.83;4.60;;;;;;;;;;4955063;29;20097;-67
2022/01/26 11:31:40;;;;;;;4.80;3.13;;;;;;;;;;4955145;29;20137;-66
2022/01/26 11:34:05;;;;;;;5.47;4.03;;;;;;;;;;4954757;28;20373;-67
2022/01/26 11:36:32;;;;;;;6.47;4.97;;;;;;;;;;4955186;28;20031;-67
2022/01/26 11:46:58;;;;;;;5.73;3.70;;;;;;;;;;4942891;29;20107;-68
2022/01/26 11:49:24;;;;;;;7.23;4.40;;;;;;;;;;4954777;29;20110;-68
2022/01/26 11:51:51;;;;;;;4.53;3.20;;;;;;;;;;4951394;28;20035;-65
2022/01/26 11:54:18;;;;;;;6.77;4.63;;;;;;;;;;4953927;28;20103;-67
2022/01/26 11:56:56;;;;;;;6.63;4.70;;;;;;;;;;4953911;28;20134;-67
2022/01/26 11:59:23;;;;;;;7.07;5.00;;;;;;;;;;4951748;28;20063;-67
2022/01/26 12:01:56;;;;;;;7.23;4.33;;;;;;;;;;4954241;29;20057;-67
2022/01/26 12:04:24;;;;;;;7.90;5.10;;;;;;;;;;4954267;28;20107;-67
2022/01/26 12:06:56;;;;;;;8.33;4.60;;;;;;;;;;4950235;28;20698;-67
2022/01/26 12:09:22;;;;;;;8.13;4.77;;;;;;;;;;4951928;28;20094;-67
2022/01/26 12:11:51;;;;;;;7.93;6.30;;;;;;;;;;4968947;28;20038;-67
2022/01/26 12:14:19;;;;;;;9.73;5.07;;;;;;;;;;4953840;29;20495;-67
2022/01/26 12:16:48;;;;;;;8.47;5.23;;;;;;;;;;4953687;28;20522;-67
2022/01/26 12:43:13;;;;;;;10.00;5.67;;;;;;;;;;4953802;29;20383;-65
2022/01/26 12:45:38;;;;;;;9.67;5.67;;;;;;;;;;4953964;28;20019;-65
2022/01/26 12:48:06;;;;;;;10.77;5.30;;;;;;;;;;4953003;28;20023;-64
2022/01/26 12:50:31;;;;;;;7.63;4.57;;;;;;;;;;4951111;28;20504;-64
2022/01/26 12:52:57;;;;;;;8.77;4.40;;;;;;;;;;4953235;28;20031;-64
2022/01/26 12:55:26;;;;;;;7.50;5.00;;;;;;;;;;4968237;28;20027;-65
2022/01/26 12:57:52;;;;;;;11.63;6.57;;;;;;;;;;4955351;28;20037;-65
2022/01/26 13:00:18;;;;;;;10.57;5.87;;;;;;;;;;4953596;28;20110;-64
2022/01/26 13:02:43;;;;;;;11.87;6.13;;;;;;;;;;4953668;28;20023;-65
2022/01/26 13:05:09;;;;;;;10.80;6.57;;;;;;;;;;4951001;28;20468;-64
2022/01/26 13:07:35;;;;;;;10.90;6.13;;;;;;;;;;4952536;28;20022;-64
2022/01/26 13:10:00;;;;;;;10.13;6.67;;;;;;;;;;4952646;29;20023;-63
2022/01/26 13:12:29;;;;;;;14.10;9.17;;;;;;;;;;4952352;29;20027;-64
2022/01/26 13:15:02;;;;;;;13.83;6.43;;;;;;;;;;4952689;28;20027;-64
2022/01/26 13:20:43;;;;;;;13.27;6.83;;;;;;;;;;4949844;28;20023;-64
2022/01/26 13:22:58;;;;;;;11.47;6.70;;;;;;;;;;4957372;28;20122;-65
2022/01/26 13:28:27;;;;;;;6.07;4.00;;;;;;;;;;4953698;29;20065;-65
2022/01/26 13:31:20;;;;;;;11.17;5.53;;;;;;;;;;4947414;29;20032;-65
2022/01/26 13:46:51;;;;;;;12.20;7.37;;;;;;;;;;4951699;28;20046;-64
2022/01/26 13:54:42;;;;;;;19.53;9.70;;;;;;;;;;4955751;28;20031;-64
2022/01/26 13:57:25;;;;;;;14.25;7.60;;;;;;;;;;4952446;28;20042;-64
2022/01/26 13:59:53;;;;;;;14.67;8.83;;;;;;;;;;4952299;29;20039;-65
2022/01/26 14:02:18;;;;;;;20.37;10.13;;;;;;;;;;4952569;29;20047;-65
2022/01/26 14:04:44;;;;;;;18.63;10.50;;;;;;;;;;4952819;29;20068;-65
2022/01/26 14:07:09;;;;;;;21.07;11.70;;;;;;;;;;4952372;28;20125;-63
2022/01/26 14:09:34;;;;;;;20.70;11.73;;;;;;;;;;4952204;28;20031;-65
2022/01/26 14:12:01;;;;;;;15.30;8.53;;;;;;;;;;4952243;28;20023;-64
2022/01/26 14:14:33;;;;;;;14.43;7.83;;;;;;;;;;4953089;28;20062;-64
2022/01/26 14:17:01;;;;;;;15.93;8.63;;;;;;;;;;4952927;28;20495;-65
2022/01/26 14:27:04;;;;;;;16.23;9.00;;;;;;;;;;4955931;28;20027;-64
2022/01/26 14:29:56;;;;;;;15.37;8.40;;;;;;;;;;4954973;29;20055;-64
2022/01/26 14:51:31;;;;;;;19.97;10.00;;;;;;;;;;4952333;28;20069;-64
2022/01/26 15:21:17;;;;;;;22.30;10.93;;;;;;;;;;4910397;29;20107;-62
2022/01/26 15:40:00;;;;;;;28.37;13.23;;;;;;;;;;4913312;29;20054;-64
2022/01/26 15:44:04;;;;;;;31.27;15.67;;;;;;;;;;4935430;29;20026;-64
2022/01/26 15:50:11;;;;;;;30.60;15.93;;;;;;;;;;4935594;29;20042;-63
2022/01/26 15:52:12;;;;;;;29.77;16.45;;;;;;;;;;4933571;28;20453;-64
2022/01/26 15:57:51;;;;;;;24.30;13.10;;;;;;;;;;4935219;29;20519;-64
2022/01/26 16:08:12;;;;;;;26.40;13.20;;;;;;;;;;4935212;29;20024;-64
2022/01/26 16:21:27;;;;;;;20.57;11.37;;;;;;;;;;4929836;29;20037;-64
2022/01/26 17:02:33;;;;;;;18.87;11.47;;;;;;;;;;4959043;28;20040;-63
2022/01/26 17:24:19;;;;;;;16.13;9.00;;;;;;;;;;4855339;29;20038;-65
2022/01/26 18:15:19;;;;;;;23.30;14.73;;;;;;;;;;4934800;29;20035;-64
2022/01/26 18:38:45;;;;;;;32.90;17.43;;;;;;;;;;4932721;29;20087;-68
2022/01/26 18:49:41;;;;;;;25.93;13.57;;;;;;;;;;4956943;28;20074;-64
2022/01/26 18:52:07;;;;;;;25.10;13.03;;;;;;;;;;4964040;28;20019;-65
2022/01/26 18:54:33;;;;;;;27.30;14.77;;;;;;;;;;4955036;28;20086;-65
2022/01/26 18:57:00;;;;;;;27.53;13.57;;;;;;;;;;4954657;28;20114;-64
2022/01/26 18:59:25;;;;;;;30.03;15.30;;;;;;;;;;4954778;28;20027;-66
2022/01/26 19:01:55;;;;;;;28.90;15.10;;;;;;;;;;4955755;28;20086;-63
2022/01/26 19:04:27;;;;;;;26.23;13.93;;;;;;;;;;4952291;28;20039;-64
2022/01/26 19:06:53;;;;;;;28.97;14.37;;;;;;;;;;4954639;28;20074;-64
2022/01/26 19:09:22;;;;;;;28.73;15.03;;;;;;;;;;4953228;28;20031;-64
2022/01/26 19:11:48;;;;;;;26.73;14.53;;;;;;;;;;4955889;28;20031;-65
2022/01/26 19:14:13;;;;;;;24.97;13.23;;;;;;;;;;4955067;28;20024;-64
2022/01/26 19:16:45;;;;;;;25.30;13.17;;;;;;;;;;4955901;29;20428;-63
2022/01/26 19:22:11;;;;;;;24.13;13.30;;;;;;;;;;4933894;29;20094;-66
2022/01/26 19:25:03;;;;;;;23.37;12.70;;;;;;;;;;4941873;29;20039;-64
2022/01/26 19:27:34;;;;;;;27.90;12.95;;;;;;;;;;4954753;29;20428;-63
2022/01/26 19:30:34;;;;;;;28.20;14.83;;;;;;;;;;4954302;28;20019;-65
2022/01/26 19:51:08;;;;;;;29.50;15.30;;;;;;;;;;4943055;29;20039;-65
2022/01/26 19:53:34;;;;;;;27.33;15.13;;;;;;;;;;4945735;28;20023;-65
2022/01/26 19:55:59;;;;;;;26.27;13.83;;;;;;;;;;4954125;28;20560;-64
2022/01/26 19:58:25;;;;;;;26.20;13.30;;;;;;;;;;4954251;28;20027;-64
2022/01/26 20:00:51;;;;;;;33.03;16.07;;;;;;;;;;4955342;28;20154;-64
2022/01/26 20:03:16;;;;;;;26.47;12.97;;;;;;;;;;4953516;29;20110;-65
2022/01/26 20:05:42;;;;;;;19.33;10.03;;;;;;;;;;4953525;28;20232;-63
2022/01/26 20:10:56;;;;;;;29.40;14.60;;;;;;;;;;4954258;29;20106;-63
2022/01/26 20:13:31;;;;;;;31.00;16.07;;;;;;;;;;4954513;28;20027;-64
2022/01/26 20:15:57;;;;;;;30.35;16.58;;;;;;;;;;4953423;28;20035;-64
2022/01/26 20:18:24;;;;;;;25.63;14.07;;;;;;;;;;4953744;28;20146;-64
2022/01/26 20:20:50;;;;;;;30.50;15.93;;;;;;;;;;4948550;28;20027;-64
2022/01/26 20:23:16;;;;;;;27.80;15.07;;;;;;;;;;4952385;28;20031;-64
2022/01/26 20:25:43;;;;;;;25.30;11.67;;;;;;;;;;4952855;28;20054;-65
2022/01/26 20:28:10;;;;;;;27.83;14.60;;;;;;;;;;4954554;28;20884;-65
2022/01/26 20:30:39;;;;;;;29.50;14.93;;;;;;;;;;4954332;29;20030;-65
2022/01/26 20:33:04;;;;;;;29.13;14.37;;;;;;;;;;4954423;28;20479;-63
2022/01/26 20:35:30;;;;;;;31.80;16.47;;;;;;;;;;4954043;28;20026;-63
2022/01/26 20:37:55;;;;;;;28.13;14.93;;;;;;;;;;4944984;28;20032;-63
2022/01/26 20:40:20;;;;;;;30.13;15.83;;;;;;;;;;4951860;29;20035;-63
2022/01/26 20:42:45;;;;;;;26.57;12.37;;;;;;;;;;4952873;28;20126;-64
2022/01/26 20:45:11;;;;;;;27.90;14.40;;;;;;;;;;4953900;28;20059;-63
2022/01/26 20:47:37;;;;;;;29.03;14.50;;;;;;;;;;4952537;28;20139;-63
2022/01/26 20:50:03;;;;;;;30.53;14.37;;;;;;;;;;4946664;28;20469;-64
2022/01/26 20:52:28;;;;;;;26.90;12.23;;;;;;;;;;4944083;29;20039;-63
2022/01/26 20:54:54;;;;;;;31.40;15.77;;;;;;;;;;4945069;29;20024;-64
2022/01/26 20:57:19;;;;;;;34.07;16.07;;;;;;;;;;4948948;29;20141;-64
2022/01/26 20:59:44;;;;;;;30.93;13.73;;;;;;;;;;4953890;28;20377;-64
2022/01/26 21:02:09;;;;;;;28.30;14.90;;;;;;;;;;4952285;29;20464;-63
2022/01/26 21:04:35;;;;;;;33.23;16.57;;;;;;;;;;4953442;29;20476;-64
2022/01/26 21:07:00;;;;;;;32.70;15.03;;;;;;;;;;4953775;28;20389;-64
2022/01/26 21:09:25;;;;;;;29.47;14.60;;;;;;;;;;4951873;28;20106;-64
2022/01/26 21:11:51;;;;;;;31.73;16.23;;;;;;;;;;4951341;28;20031;-64
2022/01/26 21:14:16;;;;;;;26.70;12.77;;;;;;;;;;4953783;28;20027;-63
2022/01/26 21:16:41;;;;;;;27.53;14.37;;;;;;;;;;4952512;29;20082;-64
2022/01/26 21:19:06;;;;;;;28.00;12.47;;;;;;;;;;4952962;28;20035;-63
2022/01/26 21:21:32;;;;;;;31.57;15.23;;;;;;;;;;4942870;28;20038;-63
2022/01/26 21:23:57;;;;;;;33.07;14.63;;;;;;;;;;4953295;28;20019;-63
2022/01/26 21:26:25;;;;;;;24.17;11.67;;;;;;;;;;4952247;28;20034;-63
2022/01/26 21:28:50;;;;;;;32.60;14.90;;;;;;;;;;4953048;28;20054;-63